Forside
METAR-TAF:

METAR-TAF

Lufthavne :

Olieplatform

A12-cpp, Holland

Breddekreds: 55-23-57N, længdekreds: 3-48-37E, højde: 33 m

Aktuelle vejr

Denne rapport blev lavet for 17 minutter siden, kl. 17:25 UTC
Vind 37 kt fra vestsydvest
Temperatur 8°C
Fugtighed 81%
Tryk 999 hPa

METAR: EHAK 171725Z AUTO 25037KT //// // NSC 08/05 Q0999 RE//

Tid: 18:42 (17:42 UTC)


TAF: fraværende

Vejrobservationer og prognoser fra mere end 4000 lufthavne (METAR og TAF).

De gule og røde prikker repræsenterer de meteorologiske stationer.

Flyt musen over at se navnet på stationen.

Så klik over at se vejr observationer og prognoser.

At skifte det kort: Klik på de grønne knapper med et sort kors for at zoome ind; på den grønne knap med en bindestreg for at zoome ud; eller på de grønne pile for tilstødende kort.


METAR-TAF: